Time;durP1;ratioP1;P1;durP2;ratioP2;P2;SDS_P1;SDS_P2;PMS_P1;PMS_P2;Temp;Humidity;BMP_temperature;BMP_pressure;BME280_temperature;BME280_humidity;BME280_pressure;Samples;Min_cycle;Max_cycle;Signal;HPM_P1;HPM_P2
2021/07/17 00:01:17;;;;;;;6.50;2.15;;;18.10;99.90;;;;;;5030290;28;20037;-67
2021/07/17 00:04:21;;;;;;;4.38;2.22;;;18.10;99.90;;;;;;5030509;28;20041;-67
2021/07/17 00:07:26;;;;;;;14.73;2.38;;;18.10;99.90;;;;;;5030413;28;20057;-67
2021/07/17 00:10:43;;;;;;;7.50;2.55;;;18.10;99.90;;;;;;5029874;28;20396;-67
2021/07/17 00:13:47;;;;;;;10.80;2.38;;;18.10;99.90;;;;;;5030513;28;20383;-67
2021/07/17 00:16:51;;;;;;;7.90;1.92;;;18.10;99.90;;;;;;5030114;28;20318;-67
2021/07/17 00:19:55;;;;;;;8.32;2.28;;;18.10;99.90;;;;;;5030253;28;20036;-68
2021/07/17 00:22:59;;;;;;;5.53;2.42;;;18.10;99.90;;;;;;5030706;28;20040;-67
2021/07/17 00:26:04;;;;;;;6.05;2.70;;;18.10;99.90;;;;;;5030144;28;20041;-67
2021/07/17 00:29:08;;;;;;;5.00;2.70;;;18.10;99.90;;;;;;5030341;28;20360;-67
2021/07/17 00:32:12;;;;;;;4.15;2.55;;;18.10;99.90;;;;;;5029567;28;20060;-67
2021/07/17 00:35:16;;;;;;;4.40;2.35;;;18.00;99.90;;;;;;5029877;28;20068;-66
2021/07/17 00:38:20;;;;;;;14.32;4.18;;;17.90;99.90;;;;;;5029940;28;20046;-67
2021/07/17 00:41:25;;;;;;;5.32;2.42;;;18.00;99.90;;;;;;5029359;28;20045;-67
2021/07/17 00:44:29;;;;;;;8.57;2.80;;;17.90;99.90;;;;;;5030214;28;20042;-67
2021/07/17 00:47:36;;;;;;;7.57;2.40;;;17.80;99.90;;;;;;5029907;28;20044;-67
2021/07/17 00:50:40;;;;;;;6.95;3.08;;;17.90;99.90;;;;;;5029543;28;20467;-67
2021/07/17 00:53:44;;;;;;;6.25;3.17;;;17.90;99.90;;;;;;5029251;28;20048;-66
2021/07/17 00:56:48;;;;;;;5.22;3.15;;;18.00;99.90;;;;;;5033422;28;20355;-67
2021/07/17 00:59:57;;;;;;;5.97;3.00;;;18.10;99.90;;;;;;5034032;28;20037;-67
2021/07/17 01:03:09;;;;;;;5.63;3.10;;;18.20;99.90;;;;;;5033682;28;20037;-67
2021/07/17 01:06:13;;;;;;;5.05;2.40;;;18.30;99.90;;;;;;5033951;28;20058;-67
2021/07/17 01:09:18;;;;;;;5.07;2.92;;;18.30;99.90;;;;;;5033678;28;20042;-67
2021/07/17 01:12:22;;;;;;;6.25;2.75;;;18.30;99.90;;;;;;5033183;28;20396;-67
2021/07/17 01:15:26;;;;;;;6.93;2.70;;;18.40;99.90;;;;;;5033634;28;20041;-67
2021/07/17 01:18:30;;;;;;;4.70;2.53;;;18.40;99.90;;;;;;5027735;28;20026;-67
2021/07/17 01:21:44;;;;;;;6.20;2.55;;;18.50;99.90;;;;;;5021673;28;20507;-66
2021/07/17 01:24:49;;;;;;;4.78;2.50;;;18.50;99.90;;;;;;5022633;28;20042;-67
2021/07/17 01:27:55;;;;;;;4.55;2.20;;;18.50;99.90;;;;;;5023184;28;20042;-67
2021/07/17 01:31:00;;;;;;;6.32;2.33;;;18.50;99.90;;;;;;5023051;28;21181;-67
2021/07/17 01:34:04;;;;;;;3.67;2.35;;;18.60;99.90;;;;;;5024386;28;20196;-67
2021/07/17 01:37:09;;;;;;;5.60;2.60;;;18.60;99.90;;;;;;5022242;28;20049;-67
2021/07/17 01:40:21;;;;;;;3.45;2.55;;;18.60;99.90;;;;;;5025936;28;20056;-67
2021/07/17 01:43:25;;;;;;;6.07;2.80;;;18.60;99.90;;;;;;5027300;28;20046;-67
2021/07/17 01:46:35;;;;;;;4.43;2.30;;;18.60;99.90;;;;;;5020990;28;20040;-67
2021/07/17 01:49:43;;;;;;;3.15;2.20;;;18.70;99.90;;;;;;5023318;28;20384;-67
2021/07/17 01:52:50;;;;;;;4.10;2.47;;;18.70;99.90;;;;;;5021546;28;20515;-67
2021/07/17 01:55:54;;;;;;;4.78;2.60;;;18.70;99.90;;;;;;5024073;28;20590;-67
2021/07/17 01:58:58;;;;;;;5.32;2.85;;;18.70;99.90;;;;;;5025308;28;20041;-67
2021/07/17 02:02:04;;;;;;;4.38;3.10;;;18.50;99.90;;;;;;5024457;28;20072;-67
2021/07/17 02:05:09;;;;;;;6.32;3.00;;;18.50;99.90;;;;;;5021544;28;20048;-67
2021/07/17 02:08:14;;;;;;;7.18;3.22;;;18.40;99.90;;;;;;5022377;28;20053;-67
2021/07/17 02:11:19;;;;;;;8.38;2.75;;;18.40;99.90;;;;;;5022704;28;20041;-67
2021/07/17 02:14:23;;;;;;;4.97;2.78;;;18.40;99.90;;;;;;5022989;28;20041;-67
2021/07/17 02:17:27;;;;;;;4.78;2.45;;;18.30;99.90;;;;;;5023455;28;20030;-67
2021/07/17 02:20:32;;;;;;;8.25;3.10;;;18.50;99.90;;;;;;5019834;28;20026;-67
2021/07/17 02:23:36;;;;;;;4.55;2.70;;;18.60;99.90;;;;;;5011811;28;20042;-67
2021/07/17 02:26:42;;;;;;;6.00;2.80;;;18.70;99.90;;;;;;5012050;28;20041;-67
2021/07/17 02:29:46;;;;;;;4.78;2.55;;;18.70;99.90;;;;;;5012187;28;20052;-67
2021/07/17 02:32:50;;;;;;;8.20;2.88;;;18.70;99.90;;;;;;5009726;28;20052;-67
2021/07/17 02:35:55;;;;;;;7.38;2.70;;;18.80;99.90;;;;;;5012130;28;20521;-67
2021/07/17 02:38:59;;;;;;;5.75;3.00;;;18.70;99.90;;;;;;5012198;28;20042;-67
2021/07/17 02:42:03;;;;;;;5.18;2.58;;;18.60;99.90;;;;;;5011431;28;20570;-67
2021/07/17 02:45:08;;;;;;;7.97;3.78;;;18.60;99.90;;;;;;5011810;28;20408;-66
2021/07/17 02:48:13;;;;;;;5.43;2.75;;;18.60;99.90;;;;;;5012099;28;20046;-67
2021/07/17 02:51:17;;;;;;;5.85;2.55;;;18.60;99.90;;;;;;5011466;28;20417;-67
2021/07/17 02:54:22;;;;;;;4.35;3.03;;;18.60;99.90;;;;;;5011569;28;20408;-67
2021/07/17 02:57:26;;;;;;;5.25;2.92;;;18.60;99.90;;;;;;5011577;28;20064;-67
2021/07/17 03:00:34;;;;;;;5.10;2.85;;;18.60;99.90;;;;;;5011215;28;20119;-67
2021/07/17 03:03:37;;;;;;;6.93;3.53;;;18.60;99.90;;;;;;5011196;28;20063;-67
2021/07/17 03:06:41;;;;;;;8.27;2.78;;;18.50;99.90;;;;;;5011924;28;20041;-67
2021/07/17 03:09:45;;;;;;;9.95;3.35;;;18.50;99.90;;;;;;5011365;28;20053;-67
2021/07/17 03:12:49;;;;;;;4.47;2.88;;;18.40;99.90;;;;;;5011279;28;20053;-68
2021/07/17 03:15:54;;;;;;;6.00;2.90;;;18.50;99.90;;;;;;5011132;28;20499;-67
2021/07/17 03:18:59;;;;;;;5.43;3.58;;;18.50;99.90;;;;;;5010618;28;20034;-67
2021/07/17 03:22:04;;;;;;;4.95;2.78;;;18.50;99.90;;;;;;5010879;28;20120;-67
2021/07/17 03:25:09;;;;;;;2.90;2.50;;;18.40;99.90;;;;;;5011180;28;20041;-67
2021/07/17 03:28:13;;;;;;;5.50;2.80;;;18.40;99.90;;;;;;5011312;28;20048;-67
2021/07/17 03:31:28;;;;;;;3.95;2.70;;;18.40;99.90;;;;;;5010782;28;20041;-67
2021/07/17 03:34:32;;;;;;;4.60;2.90;;;18.40;99.90;;;;;;5011005;28;20396;-67
2021/07/17 03:37:36;;;;;;;5.47;3.10;;;18.40;99.90;;;;;;5011324;28;20393;-67
2021/07/17 03:40:40;;;;;;;4.80;2.88;;;18.40;99.90;;;;;;5010750;28;20053;-67
2021/07/17 03:43:45;;;;;;;5.65;3.38;;;18.40;99.90;;;;;;5011067;28;20062;-67
2021/07/17 03:46:49;;;;;;;4.03;3.00;;;18.40;99.90;;;;;;5011199;28;20037;-67
2021/07/17 03:49:53;;;;;;;4.00;2.97;;;18.40;99.90;;;;;;5010892;28;20042;-67
2021/07/17 03:52:57;;;;;;;7.05;3.20;;;18.40;99.90;;;;;;5010838;28;20117;-67
2021/07/17 03:56:01;;;;;;;4.85;2.70;;;18.40;99.90;;;;;;5010832;28;20045;-67
2021/07/17 03:59:05;;;;;;;5.97;3.50;;;18.40;99.90;;;;;;5010983;28;20082;-67
2021/07/17 04:02:09;;;;;;;5.20;2.80;;;18.40;99.90;;;;;;5010488;28;20034;-67
2021/07/17 04:05:15;;;;;;;5.60;2.70;;;18.40;99.90;;;;;;5010397;28;20389;-67
2021/07/17 04:08:20;;;;;;;3.72;2.78;;;18.40;99.90;;;;;;5010614;28;20037;-67
2021/07/17 04:11:24;;;;;;;6.22;2.85;;;18.40;99.90;;;;;;5010677;28;20048;-67
2021/07/17 04:14:28;;;;;;;5.28;2.83;;;18.40;99.90;;;;;;5010505;28;20053;-67
2021/07/17 04:17:32;;;;;;;6.47;3.38;;;18.40;99.90;;;;;;5010632;28;20037;-67
2021/07/17 04:20:36;;;;;;;4.88;2.92;;;18.30;99.90;;;;;;5010164;28;20037;-67
2021/07/17 04:23:41;;;;;;;5.13;2.70;;;18.30;99.90;;;;;;5010441;28;20045;-67
2021/07/17 04:26:46;;;;;;;4.70;3.10;;;18.30;99.90;;;;;;5009934;28;20045;-67
2021/07/17 04:29:50;;;;;;;5.40;2.90;;;18.30;99.90;;;;;;5010092;28;20041;-66
2021/07/17 04:32:53;;;;;;;7.55;2.97;;;18.30;99.90;;;;;;5009698;28;20050;-67
2021/07/17 04:35:58;;;;;;;4.50;2.70;;;18.30;99.90;;;;;;5009973;28;20042;-67
2021/07/17 04:39:03;;;;;;;4.10;2.85;;;18.30;99.90;;;;;;5010211;28;20045;-67
2021/07/17 04:42:07;;;;;;;3.80;2.95;;;18.30;99.90;;;;;;5010046;28;20045;-67
2021/07/17 04:45:11;;;;;;;6.10;2.67;;;18.40;99.90;;;;;;5009961;28;20046;-67
2021/07/17 04:48:15;;;;;;;6.43;3.13;;;18.40;99.90;;;;;;5009410;28;20060;-67
2021/07/17 04:51:19;;;;;;;5.95;2.85;;;18.50;99.90;;;;;;5009645;28;20507;-67
2021/07/17 04:54:23;;;;;;;4.95;2.92;;;18.40;99.90;;;;;;5010092;28;20053;-67
2021/07/17 04:57:27;;;;;;;5.03;2.72;;;18.40;99.90;;;;;;5008909;28;20045;-66
2021/07/17 05:00:31;;;;;;;6.90;2.92;;;18.50;99.90;;;;;;5009603;28;20046;-67
2021/07/17 05:03:36;;;;;;;5.22;3.05;;;18.50;99.90;;;;;;5009643;28;20053;-67
2021/07/17 05:06:42;;;;;;;8.27;3.15;;;18.50;99.90;;;;;;5010439;28;20053;-67
2021/07/17 05:09:47;;;;;;;4.88;3.03;;;18.50;99.90;;;;;;5010206;28;20053;-67
2021/07/17 05:12:52;;;;;;;3.28;2.75;;;18.50;99.90;;;;;;5010307;28;20595;-67
2021/07/17 05:15:56;;;;;;;6.13;3.05;;;18.60;99.90;;;;;;5009551;28;20053;-67
2021/07/17 05:19:00;;;;;;;6.45;2.95;;;18.60;99.90;;;;;;5009856;28;20038;-68
2021/07/17 05:22:04;;;;;;;5.88;3.38;;;18.70;99.90;;;;;;5009376;28;20030;-67
2021/07/17 05:25:08;;;;;;;5.03;3.60;;;18.70;99.90;;;;;;5009635;28;20041;-67
2021/07/17 05:28:12;;;;;;;8.38;3.45;;;18.80;99.90;;;;;;5009788;28;20053;-67
2021/07/17 05:31:19;;;;;;;10.48;3.78;;;18.80;99.90;;;;;;5009130;28;20041;-68
2021/07/17 05:34:23;;;;;;;6.88;3.70;;;18.90;99.90;;;;;;5010126;28;20049;-68
2021/07/17 05:37:27;;;;;;;6.95;3.58;;;18.90;99.90;;;;;;5009829;28;20038;-68
2021/07/17 05:40:31;;;;;;;6.45;3.42;;;18.90;99.90;;;;;;5009149;28;20041;-69
2021/07/17 05:43:35;;;;;;;5.15;3.72;;;18.90;99.90;;;;;;5013396;28;20057;-69
2021/07/17 05:46:39;;;;;;;9.73;3.78;;;19.00;99.90;;;;;;5013447;28;20058;-68
2021/07/17 05:49:43;;;;;;;5.03;3.50;;;19.00;99.90;;;;;;5013031;28;20034;-69
2021/07/17 05:52:48;;;;;;;7.07;3.15;;;19.10;99.90;;;;;;5013063;28;20400;-69
2021/07/17 05:55:53;;;;;;;5.00;3.38;;;19.10;99.90;;;;;;5012861;28;20053;-69
2021/07/17 05:58:58;;;;;;;5.72;3.20;;;19.10;99.90;;;;;;5020899;28;20040;-68
2021/07/17 06:02:06;;;;;;;7.40;4.10;;;19.20;99.90;;;;;;5022636;28;20490;-69
2021/07/17 06:05:12;;;;;;;6.15;3.78;;;19.10;99.90;;;;;;5032157;28;20045;-68
2021/07/17 06:08:16;;;;;;;11.63;3.95;;;18.80;99.90;;;;;;5031325;28;20041;-67
2021/07/17 06:11:20;;;;;;;7.30;3.70;;;18.70;99.90;;;;;;5029827;28;20499;-68
2021/07/17 06:14:24;;;;;;;12.50;4.20;;;18.60;99.90;;;;;;5025784;28;20033;-68
2021/07/17 06:17:28;;;;;;;5.47;3.80;;;18.50;99.90;;;;;;5019296;28;20045;-68
2021/07/17 06:20:32;;;;;;;4.07;3.60;;;18.50;99.90;;;;;;5018068;28;20037;-68
2021/07/17 06:23:36;;;;;;;5.68;3.38;;;18.60;99.90;;;;;;5023582;28;20044;-68
2021/07/17 06:26:40;;;;;;;4.65;3.70;;;18.70;99.90;;;;;;5024117;28;20037;-68
2021/07/17 06:29:44;;;;;;;5.60;4.40;;;18.90;99.90;;;;;;5025161;28;20048;-69
2021/07/17 06:32:49;;;;;;;6.30;3.70;;;18.90;99.90;;;;;;5029890;28;20413;-69
2021/07/17 06:35:54;;;;;;;6.97;4.28;;;18.90;99.90;;;;;;5016072;28;20060;-68
2021/07/17 06:38:58;;;;;;;7.10;4.03;;;18.90;99.90;;;;;;5029344;28;20052;-68
2021/07/17 06:42:03;;;;;;;4.65;3.80;;;19.00;99.90;;;;;;5015946;28;20053;-69
2021/07/17 06:45:10;;;;;;;3.92;3.50;;;19.00;99.90;;;;;;5016801;28;20057;-68
2021/07/17 06:48:15;;;;;;;6.05;4.30;;;19.10;99.90;;;;;;5024442;28;20037;-69
2021/07/17 06:51:21;;;;;;;5.18;4.00;;;19.30;99.90;;;;;;5021355;28;20044;-68
2021/07/17 06:54:25;;;;;;;5.28;3.55;;;19.40;99.90;;;;;;5019441;28;20042;-68
2021/07/17 06:57:29;;;;;;;7.55;3.65;;;19.50;99.90;;;;;;5021360;28;20039;-68
2021/07/17 07:00:34;;;;;;;3.75;3.28;;;19.70;99.90;;;;;;5019992;28;20392;-68
2021/07/17 07:03:39;;;;;;;7.22;4.43;;;19.70;99.90;;;;;;5019365;28;20392;-68
2021/07/17 07:06:43;;;;;;;12.13;6.82;;;19.80;99.90;;;;;;5021114;28;20048;-69
2021/07/17 07:09:47;;;;;;;16.75;9.45;;;19.90;99.90;;;;;;5024052;28;20048;-69
2021/07/17 07:12:51;;;;;;;17.95;9.80;;;19.90;99.90;;;;;;5024395;28;20423;-68
2021/07/17 07:15:55;;;;;;;16.83;7.20;;;19.90;99.90;;;;;;5020665;28;20502;-68
2021/07/17 07:18:59;;;;;;;10.32;5.75;;;19.90;99.90;;;;;;5021687;28;20126;-68
2021/07/17 07:22:04;;;;;;;9.00;4.72;;;20.00;99.90;;;;;;5016456;28;20108;-69
2021/07/17 07:25:10;;;;;;;5.80;3.70;;;20.00;99.90;;;;;;5022579;28;20037;-69
2021/07/17 07:28:15;;;;;;;5.15;3.90;;;20.10;99.90;;;;;;5018604;28;20049;-68
2021/07/17 07:31:20;;;;;;;6.57;4.18;;;20.10;99.90;;;;;;5017371;28;20061;-69
2021/07/17 07:34:23;;;;;;;11.27;5.38;;;20.10;99.90;;;;;;5017944;28;20022;-69
2021/07/17 07:37:29;;;;;;;10.40;5.78;;;20.20;99.90;;;;;;5013785;28;20040;-68
2021/07/17 07:40:34;;;;;;;8.98;5.97;;;20.40;99.90;;;;;;5013924;28;20041;-68
2021/07/17 07:43:41;;;;;;;9.55;4.88;;;20.60;99.90;;;;;;5014785;28;20041;-69
2021/07/17 07:46:45;;;;;;;5.22;4.40;;;20.80;99.90;;;;;;5021457;28;20515;-69
2021/07/17 07:49:53;;;;;;;4.85;3.42;;;20.80;99.90;;;;;;5019309;28;20045;-69
2021/07/17 07:52:59;;;;;;;9.20;3.65;;;20.80;99.90;;;;;;5015912;28;20080;-68
2021/07/17 07:56:04;;;;;;;7.60;3.63;;;20.80;99.90;;;;;;5016467;28;20495;-68
2021/07/17 07:59:08;;;;;;;6.00;3.15;;;20.90;99.90;;;;;;5019641;28;20033;-69
2021/07/17 08:02:13;;;;;;;3.03;2.50;;;21.00;99.90;;;;;;5019570;28;20049;-69
2021/07/17 08:05:17;;;;;;;5.60;3.22;;;21.00;99.90;;;;;;5019473;28;20053;-68
2021/07/17 08:08:22;;;;;;;6.65;3.60;;;21.00;99.90;;;;;;5020019;28;20045;-69
2021/07/17 08:11:26;;;;;;;8.60;6.88;;;21.10;99.90;;;;;;5019046;28;20044;-69
2021/07/17 08:14:30;;;;;;;4.88;3.35;;;21.10;99.90;;;;;;5019795;28;20041;-68
2021/07/17 08:17:37;;;;;;;9.40;6.20;;;21.10;99.90;;;;;;5018773;28;20060;-68
2021/07/17 08:20:42;;;;;;;9.55;6.97;;;21.20;99.90;;;;;;5018061;28;20488;-69
2021/07/17 08:23:47;;;;;;;34.25;20.90;;;21.20;99.90;;;;;;5019971;28;20056;-69
2021/07/17 08:26:51;;;;;;;42.28;25.83;;;21.40;99.90;;;;;;5019097;28;20492;-69
2021/07/17 08:29:55;;;;;;;43.42;26.52;;;21.50;99.90;;;;;;5021570;28;20044;-69
2021/07/17 08:32:59;;;;;;;22.73;11.07;;;21.40;99.90;;;;;;5020815;28;20048;-69
2021/07/17 08:36:04;;;;;;;15.43;10.45;;;21.20;99.90;;;;;;5021089;28;20522;-69
2021/07/17 08:39:08;;;;;;;9.57;6.82;;;21.20;99.90;;;;;;5021305;28;20400;-69
2021/07/17 08:42:17;;;;;;;11.63;7.97;;;21.20;99.90;;;;;;5020186;28;20798;-69
2021/07/17 08:45:23;;;;;;;17.33;11.30;;;21.20;99.90;;;;;;5026436;28;20056;-68
2021/07/17 08:48:28;;;;;;;13.90;9.27;;;21.30;99.90;;;;;;5021731;28;20025;-69
2021/07/17 08:51:32;;;;;;;12.63;9.80;;;21.40;99.90;;;;;;5020468;28;20044;-69
2021/07/17 08:54:39;;;;;;;11.85;8.82;;;21.30;99.90;;;;;;5020935;28;20045;-69
2021/07/17 08:57:44;;;;;;;7.05;5.68;;;21.20;99.90;;;;;;5029601;28;20045;-68
2021/07/17 09:00:49;;;;;;;7.40;5.63;;;21.30;99.90;;;;;;5029757;28;20034;-68
2021/07/17 09:03:53;;;;;;;8.05;5.68;;;21.40;99.90;;;;;;5030030;28;20404;-68
2021/07/17 09:06:57;;;;;;;13.20;8.15;;;21.60;99.90;;;;;;5012470;28;20049;-68
2021/07/17 09:10:30;;;;;;;13.13;8.07;;;21.60;99.90;;;;;;5015818;28;20044;-68
2021/07/17 09:13:36;;;;;;;6.63;4.22;;;21.80;99.90;;;;;;5015624;28;20069;-68
2021/07/17 09:16:40;;;;;;;5.32;3.90;;;22.00;99.90;;;;;;5030873;28;20037;-69
2021/07/17 09:19:56;;;;;;;7.88;4.45;;;22.00;99.90;;;;;;5032998;28;20034;-68
2021/07/17 09:23:05;;;;;;;8.02;3.60;;;22.20;99.90;;;;;;5030777;28;20387;-67
2021/07/17 09:26:14;;;;;;;6.60;3.03;;;22.40;99.90;;;;;;5017815;28;20048;-69
2021/07/17 09:29:20;;;;;;;6.93;2.90;;;22.50;99.90;;;;;;5022448;28;20053;-67
2021/07/17 09:32:24;;;;;;;5.10;2.70;;;22.60;99.90;;;;;;5022902;28;20041;-69
2021/07/17 09:35:28;;;;;;;5.28;2.90;;;22.70;99.90;;;;;;5026836;28;20041;-68
2021/07/17 09:38:33;;;;;;;3.38;2.80;;;22.70;99.90;;;;;;5033381;28;20378;-67
2021/07/17 09:41:37;;;;;;;3.72;2.80;;;22.70;99.90;;;;;;5032491;28;20037;-68
2021/07/17 09:44:42;;;;;;;5.57;3.17;;;22.70;99.90;;;;;;5032260;28;20048;-67
2021/07/17 09:47:47;;;;;;;4.20;2.60;;;22.60;99.90;;;;;;5023214;28;20486;-67
2021/07/17 09:50:53;;;;;;;4.75;2.70;;;22.60;99.90;;;;;;5024140;28;20036;-68
2021/07/17 09:54:01;;;;;;;5.78;3.03;;;22.70;99.90;;;;;;5024133;28;20407;-68
2021/07/17 09:57:06;;;;;;;5.97;3.60;;;22.50;99.90;;;;;;5024347;28;20042;-69
2021/07/17 10:00:18;;;;;;;5.30;3.05;;;22.20;99.90;;;;;;5021225;28;20037;-68
2021/07/17 10:03:22;;;;;;;4.18;2.72;;;22.00;99.90;;;;;;5023812;28;20044;-68
2021/07/17 10:06:32;;;;;;;4.20;3.13;;;21.80;99.90;;;;;;5024596;28;20033;-68
2021/07/17 10:09:38;;;;;;;7.50;3.38;;;21.80;99.90;;;;;;5023192;28;20040;-68
2021/07/17 10:12:43;;;;;;;5.90;3.40;;;21.80;99.90;;;;;;5021237;28;20212;-68
2021/07/17 10:15:48;;;;;;;5.38;3.95;;;21.90;99.90;;;;;;5022096;28;20041;-69
2021/07/17 10:18:54;;;;;;;5.80;4.13;;;22.10;99.90;;;;;;5022822;28;20389;-68
2021/07/17 10:22:00;;;;;;;5.88;3.90;;;22.40;99.90;;;;;;5020534;28;20038;-67
2021/07/17 10:25:08;;;;;;;6.75;3.58;;;22.70;99.90;;;;;;5022156;28;20049;-66
2021/07/17 10:28:13;;;;;;;5.68;3.67;;;22.80;99.90;;;;;;5024918;28;20049;-67
2021/07/17 10:31:18;;;;;;;5.60;3.90;;;23.20;99.90;;;;;;5030904;28;20048;-67
2021/07/17 10:34:23;;;;;;;6.70;4.60;;;23.50;99.90;;;;;;5020559;28;20053;-68
2021/07/17 10:37:34;;;;;;;7.30;3.70;;;23.50;99.90;;;;;;5016927;28;20497;-68
2021/07/17 10:40:41;;;;;;;4.88;3.53;;;23.40;99.90;;;;;;5031468;28;20037;-67
2021/07/17 10:43:55;;;;;;;7.65;3.80;;;23.30;99.90;;;;;;5030636;28;20045;-67
2021/07/17 10:47:06;;;;;;;4.65;3.58;;;23.40;99.90;;;;;;5019802;28;20037;-68
2021/07/17 10:50:14;;;;;;;4.57;3.38;;;23.30;99.90;;;;;;5017863;28;20045;-67
2021/07/17 10:53:37;;;;;;;7.15;4.00;;;23.20;99.90;;;;;;5005657;28;20416;-68
2021/07/17 10:56:46;;;;;;;8.93;5.78;;;23.40;99.90;;;;;;5019825;28;20038;-68
2021/07/17 10:59:50;;;;;;;8.30;4.97;;;23.50;99.90;;;;;;5019323;28;20034;-68
2021/07/17 11:03:16;;;;;;;9.52;5.38;;;23.40;99.90;;;;;;5020399;28;20060;-68
2021/07/17 11:06:33;;;;;;;10.00;5.80;;;23.40;99.90;;;;;;5019903;28;20038;-68
2021/07/17 11:09:55;;;;;;;10.00;6.20;;;23.60;99.90;;;;;;5019543;28;20507;-67
2021/07/17 11:12:59;;;;;;;11.40;6.77;;;23.90;99.90;;;;;;5020481;28;20064;-68
2021/07/17 11:16:04;;;;;;;8.60;5.35;;;24.30;99.90;;;;;;5019560;28;20283;-68
2021/07/17 11:19:18;;;;;;;8.00;3.95;;;25.00;99.90;;;;;;5019438;28;20051;-67
2021/07/17 11:22:29;;;;;;;4.53;2.97;;;25.30;99.90;;;;;;5019254;28;20037;-68
2021/07/17 11:25:34;;;;;;;5.07;2.88;;;25.60;99.90;;;;;;5019362;28;20042;-68
2021/07/17 11:28:50;;;;;;;6.55;2.63;;;25.50;99.90;;;;;;5019540;28;20045;-68
2021/07/17 11:31:55;;;;;;;4.85;2.63;;;25.30;99.90;;;;;;5018975;28;20046;-68
2021/07/17 11:35:01;;;;;;;4.97;2.38;;;25.30;99.90;;;;;;5019620;28;20507;-68
2021/07/17 11:38:06;;;;;;;5.20;2.75;;;25.40;99.90;;;;;;5019119;28;20052;-68
2021/07/17 11:41:11;;;;;;;5.20;2.50;;;25.50;99.90;;;;;;5014833;28;20053;-67
2021/07/17 11:44:15;;;;;;;3.45;2.78;;;25.20;99.90;;;;;;5024836;28;20392;-67
2021/07/17 11:47:26;;;;;;;4.53;2.70;;;24.90;99.90;;;;;;5013373;28;20041;-67
2021/07/17 11:50:32;;;;;;;3.88;2.45;;;24.60;99.90;;;;;;5020931;28;20037;-67
2021/07/17 11:53:37;;;;;;;4.05;2.70;;;24.50;99.90;;;;;;5019808;28;20054;-66
2021/07/17 11:56:42;;;;;;;5.15;2.42;;;24.40;99.90;;;;;;5019240;28;20053;-67
2021/07/17 11:59:56;;;;;;;4.32;2.58;;;24.40;99.90;;;;;;5019606;28;20054;-67
2021/07/17 12:03:01;;;;;;;5.72;2.90;;;24.60;99.90;;;;;;5016892;28;20037;-67
2021/07/17 12:06:04;;;;;;;5.57;2.63;;;24.60;99.90;;;;;;5018176;28;20045;-67
2021/07/17 12:09:11;;;;;;;3.20;2.83;;;24.70;99.90;;;;;;5018691;28;20034;-68
2021/07/17 12:12:22;;;;;;;5.65;3.63;;;24.80;99.90;;;;;;5017176;28;20036;-68
2021/07/17 12:15:37;;;;;;;6.90;4.15;;;24.60;99.90;;;;;;5018438;28;20507;-67
2021/07/17 12:18:42;;;;;;;7.38;4.07;;;24.80;99.90;;;;;;5018742;28;20503;-67
2021/07/17 12:21:46;;;;;;;7.88;4.70;;;25.20;99.90;;;;;;5005324;28;20034;-67
2021/07/17 12:25:16;;;;;;;4.93;3.67;;;25.50;99.90;;;;;;5018203;28;20044;-68
2021/07/17 12:28:24;;;;;;;9.52;4.13;;;25.40;99.90;;;;;;5017637;28;20038;-67
2021/07/17 12:31:29;;;;;;;6.75;3.88;;;25.40;99.90;;;;;;5017951;28;20337;-66
2021/07/17 12:34:34;;;;;;;5.25;3.17;;;25.50;99.90;;;;;;5017688;28;20507;-66
2021/07/17 12:37:38;;;;;;;6.82;2.78;;;25.50;99.90;;;;;;5018313;28;20113;-68
2021/07/17 12:41:10;;;;;;;7.72;2.92;;;25.40;99.90;;;;;;5017733;28;20038;-67
2021/07/17 12:44:15;;;;;;;4.40;2.45;;;25.40;99.90;;;;;;5018277;28;20042;-68
2021/07/17 12:47:20;;;;;;;5.93;3.22;;;25.60;99.90;;;;;;5017784;28;20210;-68
2021/07/17 12:50:26;;;;;;;4.03;2.78;;;26.00;99.90;;;;;;5020005;28;20044;-68
2021/07/17 12:53:30;;;;;;;4.88;2.72;;;26.50;99.90;;;;;;5020330;28;20045;-66
2021/07/17 12:56:53;;;;;;;3.60;2.75;;;26.90;99.90;;;;;;5013601;28;20079;-68
2021/07/17 12:59:57;;;;;;;3.80;2.28;;;27.00;99.90;;;;;;5013550;28;20038;-67
2021/07/17 13:03:03;;;;;;;2.85;2.47;;;27.00;99.90;;;;;;5024491;28;20391;-67
2021/07/17 13:06:13;;;;;;;5.30;2.75;;;27.50;99.90;;;;;;5033279;28;20037;-68
2021/07/17 13:09:16;;;;;;;5.20;2.90;;;28.00;99.90;;;;;;5032007;28;20037;-67
2021/07/17 13:12:29;;;;;;;7.35;2.70;;;28.20;99.90;;;;;;5032176;28;20041;-68
2021/07/17 13:15:36;;;;;;;5.38;2.97;;;27.80;99.90;;;;;;5033073;28;20048;-68
2021/07/17 13:18:47;;;;;;;3.25;2.55;;;27.50;99.90;;;;;;5032880;28;20070;-68
2021/07/17 13:22:02;;;;;;;3.55;2.72;;;27.50;99.90;;;;;;5023379;28;20043;-68
2021/07/17 13:25:21;;;;;;;5.00;2.67;;;27.70;99.90;;;;;;5023839;28;20038;-66
2021/07/17 13:28:29;;;;;;;4.40;2.10;;;27.70;99.90;;;;;;5030848;28;20476;-68
2021/07/17 13:31:34;;;;;;;1.95;1.70;;;27.10;99.90;;;;;;5031896;28;20057;-69
2021/07/17 13:34:39;;;;;;;2.67;1.70;;;26.30;99.90;;;;;;5030269;28;20042;-68
2021/07/17 13:37:45;;;;;;;4.45;1.70;;;25.60;99.90;;;;;;5017116;28;20052;-68
2021/07/17 13:40:56;;;;;;;3.42;1.55;;;25.20;99.90;;;;;;5029133;28;20392;-68
2021/07/17 13:44:15;;;;;;;3.42;1.60;;;25.10;99.90;;;;;;5032281;28;20060;-68
2021/07/17 13:47:20;;;;;;;4.35;1.85;;;24.90;99.90;;;;;;5029040;28;20044;-68
2021/07/17 13:50:30;;;;;;;2.13;1.58;;;24.60;99.90;;;;;;5018733;28;20034;-69
2021/07/17 13:53:34;;;;;;;2.97;1.50;;;24.50;99.90;;;;;;5015642;28;20043;-69
2021/07/17 13:56:38;;;;;;;5.03;1.90;;;24.70;99.90;;;;;;5023059;28;20042;-69
2021/07/17 13:59:43;;;;;;;12.93;2.55;;;25.00;99.90;;;;;;5027079;28;20050;-68
2021/07/17 14:02:48;;;;;;;3.88;1.70;;;25.40;99.90;;;;;;5012834;28;20049;-69
2021/07/17 14:06:03;;;;;;;2.63;1.52;;;25.40;99.90;;;;;;5014523;28;20049;-68
2021/07/17 14:09:07;;;;;;;1.92;1.58;;;25.30;99.90;;;;;;5011711;28;20042;-67
2021/07/17 14:12:12;;;;;;;2.33;1.23;;;25.20;99.90;;;;;;5012705;28;20038;-68
2021/07/17 14:15:16;;;;;;;4.53;1.80;;;25.00;99.90;;;;;;5012601;28;20476;-67
2021/07/17 14:18:21;;;;;;;2.63;1.48;;;24.80;99.90;;;;;;5012618;28;20044;-68
2021/07/17 14:21:25;;;;;;;4.07;1.42;;;24.80;99.90;;;;;;5012248;28;20052;-68
2021/07/17 14:24:29;;;;;;;2.33;1.40;;;24.80;99.90;;;;;;5012831;28;20418;-68
2021/07/17 14:27:34;;;;;;;1.80;1.65;;;25.20;99.90;;;;;;5012284;28;20050;-68
2021/07/17 14:30:39;;;;;;;5.78;1.88;;;25.60;99.90;;;;;;5012006;28;20042;-68
2021/07/17 14:33:43;;;;;;;3.30;1.50;;;26.10;99.90;;;;;;5012439;28;20033;-68
2021/07/17 14:36:47;;;;;;;2.25;1.40;;;26.70;99.90;;;;;;5012344;28;20041;-69
2021/07/17 14:39:51;;;;;;;3.47;1.55;;;27.30;99.90;;;;;;5012867;28;20034;-68
2021/07/17 14:42:56;;;;;;;1.58;1.48;;;27.80;99.30;;;;;;5011839;28;20038;-68
2021/07/17 14:46:02;;;;;;;1.52;1.23;;;27.90;98.20;;;;;;5012595;28;20030;-67
2021/07/17 14:49:06;;;;;;;3.15;1.33;;;28.00;98.10;;;;;;5012548;28;20480;-69
2021/07/17 14:52:11;;;;;;;3.30;1.65;;;27.70;97.70;;;;;;5010934;28;20335;-68
2021/07/17 14:55:15;;;;;;;8.10;1.73;;;27.40;97.80;;;;;;5012377;28;20415;-68
2021/07/17 14:58:20;;;;;;;4.50;1.63;;;27.00;98.20;;;;;;5012148;28;20045;-68
2021/07/17 15:01:24;;;;;;;2.40;1.50;;;27.00;98.70;;;;;;5012081;28;20079;-67
2021/07/17 15:04:29;;;;;;;3.20;1.65;;;27.00;99.00;;;;;;5011866;28;20392;-68
2021/07/17 15:07:33;;;;;;;4.97;1.85;;;26.90;99.60;;;;;;5011759;28;20044;-68
2021/07/17 15:10:37;;;;;;;2.38;1.48;;;26.90;99.70;;;;;;5011353;28;20044;-68
2021/07/17 15:13:41;;;;;;;1.90;1.45;;;26.90;99.20;;;;;;5009764;28;20042;-69
2021/07/17 15:16:45;;;;;;;5.00;1.90;;;27.00;99.20;;;;;;5011827;28;20034;-68
2021/07/17 15:19:49;;;;;;;2.45;1.80;;;27.20;99.30;;;;;;5011479;28;20049;-69
2021/07/17 15:22:53;;;;;;;4.15;1.90;;;27.00;99.50;;;;;;5011432;28;20046;-69
2021/07/17 15:25:57;;;;;;;2.92;1.77;;;27.00;99.20;;;;;;5012223;28;20045;-69
2021/07/17 15:29:03;;;;;;;3.72;2.33;;;26.60;99.50;;;;;;5011258;28;20038;-68
2021/07/17 15:32:08;;;;;;;2.42;2.00;;;26.30;99.10;;;;;;5010861;28;20049;-69
2021/07/17 15:35:11;;;;;;;4.88;2.08;;;26.10;99.80;;;;;;5011492;28;20492;-69
2021/07/17 15:38:18;;;;;;;5.10;2.25;;;26.10;99.90;;;;;;5010940;28;20049;-68
2021/07/17 15:41:22;;;;;;;3.42;2.00;;;26.00;99.90;;;;;;5010745;28;20043;-69
2021/07/17 15:44:26;;;;;;;3.35;2.10;;;26.20;99.90;;;;;;5011145;28;20049;-69
2021/07/17 15:47:31;;;;;;;3.25;2.22;;;26.40;99.90;;;;;;5010946;28;20050;-69
2021/07/17 15:50:35;;;;;;;5.88;3.03;;;26.40;99.90;;;;;;5011004;28;20053;-69
2021/07/17 15:53:39;;;;;;;3.80;2.60;;;26.20;99.90;;;;;;5009787;28;20052;-69
2021/07/17 15:56:43;;;;;;;5.25;2.40;;;26.10;99.90;;;;;;5010915;28;20053;-67
2021/07/17 15:59:47;;;;;;;4.85;2.50;;;26.20;99.90;;;;;;5010477;28;20401;-69
2021/07/17 16:02:51;;;;;;;5.43;2.67;;;26.40;99.90;;;;;;5010068;28;20501;-69
2021/07/17 16:05:56;;;;;;;3.47;2.25;;;26.60;99.70;;;;;;5010867;28;20056;-69